HomeShort term forecast

Short term forecast

Graphical weather forecast for the next 48 hours for Montreal:
Short term forecast
This weather forecast is automatically refreshed every 3 hours.

Hourly Experimental Forecast for the next 48 hours

Overall summary: Mostly cloudy starting tonight.

 Date & Hour   Temp   Feel   Baro   Hum   Speed & Bearing   Wind Gust   Precip.%   Precip.   Visibility   Cloud cover   Conditions 
 10/12/2018 - 18:00  -7.5°C  -7.5°C  1024.1 hPa  65%  4.1 km/h   11.9 km/h  0%  --  16.1km  19%  Clear 
 10/12/2018 - 19:00  -7.4°C  -7.4°C  1023.9 hPa  66%  4.1 km/h   10.5 km/h  1%  0.03 mm/h  16.1km  5%  Clear 
 10/12/2018 - 20:00  -8.0°C  -8.0°C  1023.9 hPa  70%  3.4 km/h   8.0 km/h  1%  0.04 mm/h  16.1km  1%  Clear 
 10/12/2018 - 21:00  -8.2°C  -8.2°C  1024.0 hPa  70%  3.1 km/h   5.8 km/h  1%  0.05 mm/h  16.1km  5%  Clear 
 10/12/2018 - 22:00  -8.5°C  -8.5°C  1024.1 hPa  71%  3.8 km/h   5.5 km/h  1%  0.02 mm/h  16.1km  8%  Clear 
 10/12/2018 - 23:00  -8.7°C  -8.7°C  1023.9 hPa  72%  3.3 km/h   5.4 km/h  0%  --  16.1km  15%  Clear 
 11/12/2018 - 00:00  -9.0°C  -9.0°C  1023.6 hPa  74%  3.1 km/h   4.4 km/h  0%  --  16.1km  43%  Partly Cloudy 
 11/12/2018 - 01:00  -9.1°C  -9.1°C  1023.2 hPa  74%  3.0 km/h   4.6 km/h  0%  --  16.1km  46%  Partly Cloudy 
 11/12/2018 - 02:00  -9.1°C  -9.1°C  1022.8 hPa  74%  3.1 km/h   4.5 km/h  1%  0.02 mm/h  16.1km  59%  Partly Cloudy 
 11/12/2018 - 03:00  -9.1°C  -9.1°C  1022.5 hPa  75%  3.2 km/h   4.6 km/h  0%  --  16.1km  69%  Mostly Cloudy 
 11/12/2018 - 04:00  -8.8°C  -8.8°C  1022.2 hPa  74%  3.3 km/h   4.5 km/h  1%  0.04 mm/h  16.1km  78%  Mostly Cloudy 
 11/12/2018 - 05:00  -8.1°C  -8.1°C  1021.8 hPa  71%  4.2 km/h   4.9 km/h  1%  0.05 mm/h  16.1km  86%  Mostly Cloudy 
 11/12/2018 - 06:00  -8.1°C  -8.1°C  1021.6 hPa  71%  4.8 km/h   6.7 km/h  1%  0.02 mm/h  16.1km  94%  Overcast 
 11/12/2018 - 07:00  -7.8°C  -10.8°C  1021.2 hPa  70%  5.6 km/h   7.7 km/h  0%  --  16.1km  98%  Overcast 
 11/12/2018 - 08:00  -7.4°C  -10.6°C  1021.0 hPa  70%  6.3 km/h   8.9 km/h  0%  --  16.1km  99%  Overcast 
 11/12/2018 - 09:00  -6.9°C  -10.4°C  1020.8 hPa  71%  6.9 km/h   10.0 km/h  0%  --  16.1km  99%  Overcast 
 11/12/2018 - 10:00  -6.5°C  -10.1°C  1020.4 hPa  71%  7.4 km/h   10.7 km/h  0%  --  16.1km  98%  Overcast 
 11/12/2018 - 11:00  -6.0°C  -9.6°C  1019.6 hPa  72%  7.6 km/h   10.4 km/h  0%  --  16.1km  98%  Overcast 
 11/12/2018 - 12:00  -5.2°C  -8.7°C  1018.4 hPa  72%  7.7 km/h   9.6 km/h  0%  --  16.1km  98%  Overcast 
 11/12/2018 - 13:00  -4.7°C  -8.1°C  1017.5 hPa  73%  7.9 km/h   9.4 km/h  4%  0.01 mm/h  16.1km  99%  Overcast 
 11/12/2018 - 14:00  -4.4°C  -8.0°C  1016.9 hPa  74%  8.3 km/h   10.1 km/h  4%  0.02 mm/h  16.1km  99%  Overcast 
 11/12/2018 - 15:00  -4.5°C  -8.3°C  1016.6 hPa  76%  8.8 km/h   11.4 km/h  5%  0.03 mm/h  16.1km  100%  Overcast 
 11/12/2018 - 16:00  -4.7°C  -8.6°C  1016.3 hPa  78%  9.3 km/h   12.4 km/h  6%  0.05 mm/h  12.9km  100%  Overcast 
 11/12/2018 - 17:00  -4.8°C  -9.0°C  1016.4 hPa  79%  9.7 km/h   13.0 km/h  5%  0.06 mm/h  9.7km  100%  Overcast 
 11/12/2018 - 18:00  -4.9°C  -9.2°C  1016.7 hPa  78%  10.2 km/h   13.3 km/h  5%  0.07 mm/h  6.9km  100%  Overcast 
 11/12/2018 - 19:00  -5.0°C  -9.4°C  1016.7 hPa  78%  10.6 km/h   13.6 km/h  5%  0.08 mm/h  4.7km  100%  Overcast 
 11/12/2018 - 20:00  -5.0°C  -9.5°C  1016.5 hPa  77%  10.9 km/h   13.8 km/h  5%  0.09 mm/h  3.4km  100%  Overcast 
 11/12/2018 - 21:00  -5.0°C  -9.6°C  1016.2 hPa  77%  11.1 km/h   14.0 km/h  5%  0.09 mm/h  2.7km  100%  Foggy 
 11/12/2018 - 22:00  -5.0°C  -9.7°C  1015.9 hPa  76%  11.4 km/h   14.7 km/h  5%  0.09 mm/h  2.4km  100%  Foggy 
 11/12/2018 - 23:00  -5.1°C  -9.9°C  1015.9 hPa  76%  11.8 km/h   15.9 km/h  5%  0.08 mm/h  1.9km  100%  Foggy 
 12/12/2018 - 00:00  -5.2°C  -10.1°C  1015.9 hPa  76%  12.3 km/h   17.6 km/h  5%  0.08 mm/h  1.8km  100%  Foggy 
 12/12/2018 - 01:00  -5.3°C  -10.3°C  1016.1 hPa  76%  12.6 km/h   19.2 km/h  5%  0.08 mm/h  2.8km  100%  Foggy 
 12/12/2018 - 02:00  -5.5°C  -10.6°C  1016.4 hPa  77%  12.6 km/h   20.4 km/h  4%  0.05 mm/h  6.1km  100%  Overcast 
 12/12/2018 - 03:00  -5.8°C  -10.9°C  1016.8 hPa  77%  12.4 km/h   21.6 km/h  2%  0.02 mm/h  10.8km  99%  Overcast 
 12/12/2018 - 04:00  -6.1°C  -11.3°C  1017.4 hPa  77%  12.2 km/h   22.6 km/h  2%  0.01 mm/h  14.7km  99%  Overcast 
 12/12/2018 - 05:00  -6.6°C  -11.8°C  1018.1 hPa  77%  11.9 km/h   23.2 km/h  2%  0.01 mm/h  16.1km  95%  Overcast 
 12/12/2018 - 06:00  -7.3°C  -12.4°C  1018.9 hPa  78%  11.5 km/h   23.5 km/h  3%  0.02 mm/h  16.1km  90%  Mostly Cloudy 
 12/12/2018 - 07:00  -7.9°C  -13.2°C  1019.7 hPa  77%  11.6 km/h   23.8 km/h  3%  0.02 mm/h  16.1km  86%  Mostly Cloudy 
 12/12/2018 - 08:00  -8.3°C  -14.0°C  1020.6 hPa  75%  12.7 km/h   24.3 km/h  2%  0.02 mm/h  16.1km  80%  Mostly Cloudy 
 12/12/2018 - 09:00  -8.6°C  -14.8°C  1021.5 hPa  72%  14.1 km/h   24.5 km/h  3%  0.02 mm/h  16.1km  73%  Mostly Cloudy 
 12/12/2018 - 10:00  -8.5°C  -14.9°C  1022.2 hPa  69%  14.8 km/h   23.8 km/h  4%  0.02 mm/h  16.1km  63%  Mostly Cloudy 
 12/12/2018 - 11:00  -8.0°C  -14.1°C  1022.6 hPa  65%  14.2 km/h   21.5 km/h  4%  0.01 mm/h  16.1km  48%  Partly Cloudy 
 12/12/2018 - 12:00  -7.3°C  -12.9°C  1022.8 hPa  61%  12.9 km/h   18.3 km/h  0%  --  16.1km  30%  Partly Cloudy 
 12/12/2018 - 13:00  -6.9°C  -12.0°C  1023.1 hPa  59%  11.4 km/h   15.8 km/h  0%  --  16.1km  16%  Clear 
 12/12/2018 - 14:00  -7.1°C  -11.6°C  1023.7 hPa  60%  9.7 km/h   14.2 km/h  0%  --  16.1km  10%  Clear 
 12/12/2018 - 15:00  -7.5°C  -11.5°C  1024.4 hPa  62%  7.8 km/h   13.1 km/h  0%  --  16.1km  4%  Clear 
 12/12/2018 - 16:00  -8.2°C  -11.7°C  1025.2 hPa  64%  6.7 km/h   13.1 km/h  0%  --  16.1km  0%  Clear 
 12/12/2018 - 17:00  -8.7°C  -12.4°C  1026.2 hPa  64%  6.7 km/h   15.0 km/h  0%  --  16.1km  0%  Clear 
Test

 

Past weather and reports

Past weatherFind in this section the past weather conditions, weather archive, graphics, reports and statistics.

Current conditions

Current weather condition for MontrealAll you need to know about the current weather conditions for Montreal. Weather data is updated every 10 minutes.

Weather forecast

Current Montreal weatherSince 2004, celinium.com website has provided accurate weather forecast for Montreal's island.